createdAt,value
2022-10-05T00:01:01.228Z,101873.59
2022-10-05T00:03:40.328Z,101865.06
2022-10-05T00:06:09.271Z,101867.72
2022-10-05T00:08:36.107Z,101874.72
2022-10-05T00:11:02.643Z,101879.34
2022-10-05T00:13:30.516Z,101868.84
2022-10-05T00:16:12.250Z,101871.66
2022-10-05T00:18:39.503Z,101867.19
2022-10-05T00:21:18.301Z,101874.72
2022-10-05T00:23:44.660Z,101868.28
2022-10-05T00:26:21.554Z,101859.19
2022-10-05T00:28:48.708Z,101858.63
2022-10-05T00:31:19.877Z,101854.97
2022-10-05T00:33:47.203Z,101854.00
2022-10-05T00:36:14.449Z,101850.38
2022-10-05T00:38:41.298Z,101847.00
2022-10-05T00:41:32.385Z,101845.06
2022-10-05T00:44:10.195Z,101847.00
2022-10-05T00:46:57.592Z,101841.16
2022-10-05T00:49:49.796Z,101843.94
2022-10-05T00:52:53.120Z,101840.31
2022-10-05T00:55:25.263Z,101838.34
2022-10-05T00:58:07.958Z,101834.00
2022-10-05T01:00:47.130Z,101835.00
2022-10-05T01:03:26.069Z,101843.94
2022-10-05T01:06:16.534Z,101822.97
2022-10-05T01:09:15.179Z,101826.59
2022-10-05T01:12:16.378Z,101823.53
2022-10-05T01:14:55.869Z,101816.53
2022-10-05T01:17:39.995Z,101822.84
2022-10-05T01:20:15.040Z,101821.28
2022-10-05T01:23:05.474Z,101821.44
2022-10-05T01:25:51.429Z,101815.84
2022-10-05T01:28:30.142Z,101809.81
2022-10-05T01:31:12.241Z,101797.91
2022-10-05T01:34:16.403Z,101792.75
2022-10-05T01:37:01.994Z,101782.28
2022-10-05T01:39:40.474Z,101777.09
2022-10-05T01:42:12.898Z,101770.81
2022-10-05T01:44:51.662Z,101776.53
2022-10-05T01:47:45.729Z,101758.38
2022-10-05T01:50:44.112Z,101763.97
2022-10-05T01:53:39.916Z,101763.97
2022-10-05T01:56:28.031Z,101762.28
2022-10-05T01:59:18.763Z,101753.59
2022-10-05T02:01:53.981Z,101752.63
2022-10-05T02:04:56.878Z,101739.59
2022-10-05T02:07:28.799Z,101737.25
2022-10-05T02:10:01.049Z,101737.78
2022-10-05T02:12:30.815Z,101728.41
2022-10-05T02:15:07.238Z,101735.69
2022-10-05T02:17:42.125Z,101730.38
2022-10-05T02:20:13.763Z,101729.00
2022-10-05T02:22:45.887Z,101731.50
2022-10-05T02:25:23.257Z,101733.03
2022-10-05T02:28:01.082Z,101722.72
2022-10-05T02:30:31.406Z,101731.22
2022-10-05T02:33:05.622Z,101721.44
2022-10-05T02:35:32.160Z,101717.09
2022-10-05T02:38:37.536Z,101702.56
2022-10-05T02:41:27.683Z,101713.34
2022-10-05T02:44:20.345Z,101723.69
2022-10-05T02:47:11.250Z,101717.25
2022-10-05T02:49:40.340Z,101705.50
2022-10-05T02:52:14.293Z,101701.88
2022-10-05T02:55:02.368Z,101703.28
2022-10-05T02:57:36.163Z,101693.50
2022-10-05T03:00:11.610Z,101697.00
2022-10-05T03:02:51.162Z,101691.97
2022-10-05T03:05:23.530Z,101709.84
2022-10-05T03:08:01.168Z,101707.31
2022-10-05T03:10:42.529Z,101700.19
2022-10-05T03:13:26.217Z,101701.88
2022-10-05T03:16:17.286Z,101702.84
2022-10-05T03:18:52.682Z,101708.16
2022-10-05T03:21:34.132Z,101693.22
2022-10-05T03:24:30.889Z,101706.22
2022-10-05T03:27:15.413Z,101710.25
2022-10-05T03:29:57.495Z,101715.03
2022-10-05T03:33:02.099Z,101706.91
2022-10-05T03:35:48.909Z,101706.63
2022-10-05T03:38:31.332Z,101711.81
2022-10-05T03:41:12.810Z,101719.22
2022-10-05T03:44:04.091Z,101708.59
2022-10-05T03:46:36.909Z,101702.44
2022-10-05T03:49:18.418Z,101701.31
2022-10-05T03:51:51.179Z,101695.72
2022-10-05T03:54:27.062Z,101704.38
2022-10-05T03:56:56.979Z,101712.09
2022-10-05T03:59:32.709Z,101704.13
2022-10-05T04:02:02.155Z,101702.41
2022-10-05T04:04:38.466Z,101704.13
2022-10-05T04:07:11.554Z,101698.81
2022-10-05T04:09:42.991Z,101681.16
2022-10-05T04:12:22.431Z,101678.50
2022-10-05T04:15:02.163Z,101679.78
2022-10-05T04:17:37.686Z,101675.91
2022-10-05T04:20:23.009Z,101681.75
2022-10-05T04:23:16.586Z,101673.09
2022-10-05T04:25:48.643Z,101681.06
2022-10-05T04:28:36.798Z,101678.97
2022-10-05T04:31:05.368Z,101673.09
2022-10-05T04:33:32.342Z,101664.44
2022-10-05T04:36:15.653Z,101664.44
2022-10-05T04:39:22.298Z,101655.47
2022-10-05T04:41:59.617Z,101662.75
2022-10-05T04:44:42.810Z,101657.16
2022-10-05T04:47:47.538Z,101649.47
2022-10-05T04:50:42.807Z,101648.63
2022-10-05T04:53:28.947Z,101652.38
2022-10-05T04:56:05.474Z,101653.19
2022-10-05T04:58:47.027Z,101650.00
2022-10-05T05:01:47.919Z,101654.03
2022-10-05T05:04:32.127Z,101654.63
2022-10-05T05:07:08.689Z,101657.69
2022-10-05T05:09:44.087Z,101642.59
2022-10-05T05:12:26.875Z,101639.38
2022-10-05T05:15:24.859Z,101642.88
2022-10-05T05:18:29.789Z,101640.06
2022-10-05T05:21:05.480Z,101633.78
2022-10-05T05:23:48.139Z,101626.78
2022-10-05T05:26:20.543Z,101632.25
2022-10-05T05:28:58.434Z,101632.53
2022-10-05T05:31:37.943Z,101624.44
2022-10-05T05:34:22.424Z,101630.03
2022-10-05T05:37:13.558Z,101622.88
2022-10-05T05:39:48.934Z,101630.03
2022-10-05T05:42:17.967Z,101635.63
2022-10-05T05:44:53.447Z,101636.31
2022-10-05T05:47:28.470Z,101627.66
2022-10-05T05:50:19.142Z,101638.13
2022-10-05T05:52:56.775Z,101628.34
2022-10-05T05:55:30.328Z,101632.00
2022-10-05T05:58:11.939Z,101627.78
2022-10-05T06:00:46.518Z,101629.47
2022-10-05T06:03:22.735Z,101619.69
2022-10-05T06:05:54.423Z,101626.69
2022-10-05T06:08:39.764Z,101625.28
2022-10-05T06:11:29.983Z,101619.97
2022-10-05T06:14:01.670Z,101625.56
2022-10-05T06:16:46.353Z,101627.66
2022-10-05T06:19:19.471Z,101629.34
2022-10-05T06:22:07.670Z,101633.66
2022-10-05T06:24:42.790Z,101622.19
2022-10-05T06:27:21.354Z,101637.31
2022-10-05T06:30:13.320Z,101631.00
2022-10-05T06:33:02.903Z,101622.06
2022-10-05T06:36:16.444Z,101635.34
2022-10-05T06:39:21.455Z,101629.03
2022-10-05T06:42:10.424Z,101629.75
2022-10-05T06:44:48.994Z,101635.06
2022-10-05T06:47:27.155Z,101636.44
2022-10-05T06:50:18.869Z,101638.09
2022-10-05T06:52:58.596Z,101644.84
2022-10-05T06:55:34.558Z,101633.91
2022-10-05T06:58:44.220Z,101634.47
2022-10-05T07:01:15.214Z,101636.16
2022-10-05T07:04:15.621Z,101646.63
2022-10-05T07:06:50.982Z,101647.91
2022-10-05T07:09:31.881Z,101637.97
2022-10-05T07:12:16.976Z,101641.03
2022-10-05T07:14:47.451Z,101631.09
2022-10-05T07:17:34.671Z,101639.75
2022-10-05T07:20:21.447Z,101630.53
2022-10-05T07:23:04.506Z,101631.19
2022-10-05T07:25:42.852Z,101631.91
2022-10-05T07:28:47.961Z,101624.78
2022-10-05T07:31:33.058Z,101628.97
2022-10-05T07:34:15.233Z,101633.44
2022-10-05T07:37:12.858Z,101633.28
2022-10-05T07:40:00.431Z,101638.59
2022-10-05T07:42:30.423Z,101647.56
2022-10-05T07:45:28.482Z,101644.22
2022-10-05T07:48:06.772Z,101638.91
2022-10-05T07:50:46.893Z,101648.69
2022-10-05T07:53:16.186Z,101636.94
2022-10-05T07:56:07.144Z,101633.28
2022-10-05T07:58:58.034Z,101627.69
2022-10-05T08:01:29.479Z,101623.75
2022-10-05T08:04:00.800Z,101635.75
2022-10-05T08:06:30.137Z,101629.47
2022-10-05T08:09:32.995Z,101626.53
2022-10-05T08:12:02.200Z,101619.22
2022-10-05T08:14:33.760Z,101613.31
2022-10-05T08:17:06.034Z,101622.28
2022-10-05T08:19:42.780Z,101624.94
2022-10-05T08:22:13.853Z,101617.94
2022-10-05T08:25:01.234Z,101622.97
2022-10-05T08:27:56.868Z,101609.38
2022-10-05T08:30:23.735Z,101612.75
2022-10-05T08:33:00.347Z,101609.63
2022-10-05T08:35:44.894Z,101606.53
2022-10-05T08:38:16.587Z,101613.22
2022-10-05T08:41:10.941Z,101607.91
2022-10-05T08:44:00.539Z,101602.28
2022-10-05T08:46:39.176Z,101599.94
2022-10-05T08:49:38.960Z,101602.28
2022-10-05T08:52:20.880Z,101602.00
2022-10-05T08:55:11.695Z,101593.53
2022-10-05T08:58:06.496Z,101596.19
2022-10-05T09:00:57.791Z,101588.47
2022-10-05T09:03:56.354Z,101588.56
2022-10-05T09:07:05.871Z,101590.06
2022-10-05T09:10:02.560Z,101589.06
2022-10-05T09:13:11.058Z,101604.59
2022-10-05T09:15:56.415Z,101588.31
2022-10-05T09:18:53.559Z,101581.88
2022-10-05T09:21:51.843Z,101573.00
2022-10-05T09:24:28.389Z,101577.09
2022-10-05T09:27:08.854Z,101574.50
2022-10-05T09:30:10.627Z,101579.38
2022-10-05T09:33:09.253Z,101578.38
2022-10-05T09:36:19.169Z,101573.94
2022-10-05T09:39:14.311Z,101569.66
2022-10-05T09:42:10.653Z,101566.22
2022-10-05T09:44:55.414Z,101556.28
2022-10-05T09:47:36.960Z,101551.91
2022-10-05T09:50:25.378Z,101562.75
2022-10-05T09:52:56.040Z,101560.13
2022-10-05T09:55:28.287Z,101550.19
2022-10-05T09:58:07.168Z,101551.88
2022-10-05T10:00:59.549Z,101543.56
2022-10-05T10:04:37.410Z,101540.16
2022-10-05T10:07:21.434Z,101545.69
2022-10-05T10:10:29.172Z,101541.34
2022-10-05T10:13:32.680Z,101533.34
2022-10-05T10:16:07.336Z,101531.84
2022-10-05T10:19:20.951Z,101527.47
2022-10-05T10:22:17.755Z,101527.00
2022-10-05T10:25:19.109Z,101524.47
2022-10-05T10:28:22.770Z,101525.00
2022-10-05T10:31:26.233Z,101531.31
2022-10-05T10:34:37.703Z,101522.97
2022-10-05T10:37:25.437Z,101528.97
2022-10-05T10:40:20.244Z,101517.28
2022-10-05T10:42:56.176Z,101510.47
2022-10-05T10:45:28.606Z,101509.97
2022-10-05T10:48:01.476Z,101515.97
2022-10-05T10:51:02.030Z,101518.63
2022-10-05T10:53:28.303Z,101514.25
2022-10-05T10:56:09.835Z,101515.44
2022-10-05T10:59:11.658Z,101507.25
2022-10-05T11:02:00.179Z,101507.25
2022-10-05T11:04:48.191Z,101507.59
2022-10-05T11:07:58.911Z,101498.25
2022-10-05T11:10:44.013Z,101493.28
2022-10-05T11:13:29.167Z,101498.59
2022-10-05T11:16:12.422Z,101507.25
2022-10-05T11:18:58.150Z,101504.78
2022-10-05T11:21:38.223Z,101499.63
2022-10-05T11:24:28.950Z,101502.63
2022-10-05T11:27:08.380Z,101503.00
2022-10-05T11:29:59.368Z,101497.66
2022-10-05T11:32:46.415Z,101482.66
2022-10-05T11:35:29.071Z,101485.31
2022-10-05T11:38:10.776Z,101483.66
2022-10-05T11:41:05.435Z,101480.34
2022-10-05T11:43:42.604Z,101483.00
2022-10-05T11:46:31.038Z,101478.50
2022-10-05T11:49:09.606Z,101474.31
2022-10-05T11:51:51.479Z,101462.97
2022-10-05T11:54:27.846Z,101463.31
2022-10-05T11:57:06.014Z,101473.34
2022-10-05T11:59:49.084Z,101467.16
2022-10-05T12:02:53.234Z,101463.31
2022-10-05T12:05:24.670Z,101461.72
2022-10-05T12:08:06.546Z,101462.22
2022-10-05T12:10:52.121Z,101466.97
2022-10-05T12:13:34.834Z,101462.44
2022-10-05T12:16:14.399Z,101456.59
2022-10-05T12:18:57.115Z,101449.22
2022-10-05T12:21:41.240Z,101450.88
2022-10-05T12:24:23.337Z,101448.44
2022-10-05T12:26:58.680Z,101450.78
2022-10-05T12:29:44.295Z,101436.09
2022-10-05T12:32:19.983Z,101455.34
2022-10-05T12:35:11.512Z,101441.38
2022-10-05T12:37:52.761Z,101433.56
2022-10-05T12:40:34.133Z,101433.13
2022-10-05T12:43:11.393Z,101429.50
2022-10-05T12:45:59.579Z,101437.50
2022-10-05T12:49:13.870Z,101427.28
2022-10-05T12:51:55.009Z,101436.03
2022-10-05T12:54:50.944Z,101434.78
2022-10-05T12:57:32.247Z,101434.66
2022-10-05T13:00:22.864Z,101432.75
2022-10-05T13:03:02.135Z,101440.66
2022-10-05T13:05:52.366Z,101433.06
2022-10-05T13:08:46.528Z,101438.47
2022-10-05T13:11:21.078Z,101432.16
2022-10-05T13:14:11.333Z,101440.19
2022-10-05T13:16:52.494Z,101432.84
2022-10-05T13:19:44.503Z,101425.66
2022-10-05T13:22:34.313Z,101423.16
2022-10-05T13:25:18.526Z,101425.50
2022-10-05T13:27:59.768Z,101427.22
2022-10-05T13:30:26.275Z,101420.56
2022-10-05T13:32:59.836Z,101433.25
2022-10-05T13:35:54.061Z,101429.19
2022-10-05T13:38:38.347Z,101425.88
2022-10-05T13:41:24.442Z,101435.19
2022-10-05T13:44:13.775Z,101431.81
2022-10-05T13:46:49.245Z,101433.81
2022-10-05T13:49:26.435Z,101424.69
2022-10-05T13:52:00.272Z,101428.94
2022-10-05T13:54:31.289Z,101431.25
2022-10-05T13:57:18.404Z,101423.31
2022-10-05T13:59:57.342Z,101420.22
2022-10-05T14:02:30.208Z,101413.50
2022-10-05T14:05:31.871Z,101418.03
2022-10-05T14:08:04.110Z,101432.94
2022-10-05T14:10:43.529Z,101419.09
2022-10-05T14:13:13.384Z,101422.91
2022-10-05T14:15:42.248Z,101425.56
2022-10-05T14:18:29.633Z,101419.56
2022-10-05T14:21:03.769Z,101423.84
2022-10-05T14:23:30.623Z,101421.34
2022-10-05T14:25:57.417Z,101425.25
2022-10-05T14:28:28.387Z,101424.53
2022-10-05T14:31:12.660Z,101425.03
2022-10-05T14:33:39.710Z,101436.78
2022-10-05T14:36:16.344Z,101438.69
2022-10-05T14:38:57.705Z,101429.06
2022-10-05T14:41:27.244Z,101440.81
2022-10-05T14:44:08.512Z,101448.19
2022-10-05T14:46:36.494Z,101450.38
2022-10-05T14:49:21.926Z,101459.59
2022-10-05T14:51:50.057Z,101449.94
2022-10-05T14:54:25.246Z,101452.28
2022-10-05T14:57:05.316Z,101459.66
2022-10-05T15:00:03.851Z,101448.63
2022-10-05T15:03:07.460Z,101453.31
2022-10-05T15:05:47.859Z,101459.81
2022-10-05T15:08:26.704Z,101451.97
2022-10-05T15:11:03.609Z,101454.59
2022-10-05T15:13:34.208Z,101468.97
2022-10-05T15:16:06.789Z,101464.84
2022-10-05T15:19:04.281Z,101448.31
2022-10-05T15:22:02.585Z,101446.97
2022-10-05T15:24:43.298Z,101445.63
2022-10-05T15:27:26.095Z,101454.31
2022-10-05T15:30:18.098Z,101454.97
2022-10-05T15:33:01.931Z,101446.66
2022-10-05T15:35:47.951Z,101448.97
2022-10-05T15:38:25.604Z,101456.28
2022-10-05T15:41:19.790Z,101461.97
2022-10-05T15:44:00.163Z,101460.97
2022-10-05T15:47:03.007Z,101462.31
2022-10-05T15:49:45.485Z,101460.97
2022-10-05T15:52:24.527Z,101447.63
2022-10-05T15:54:58.596Z,101460.97
2022-10-05T15:57:50.413Z,101467.47
2022-10-05T16:00:20.665Z,101472.28
2022-10-05T16:03:14.671Z,101463.28
2022-10-05T16:06:08.937Z,101462.16
2022-10-05T16:09:13.176Z,101454.97
2022-10-05T16:11:48.985Z,101465.47
2022-10-05T16:14:49.174Z,101453.97
2022-10-05T16:17:40.881Z,101453.63
2022-10-05T16:20:52.080Z,101471.59
2022-10-05T16:23:44.443Z,101468.91
2022-10-05T16:26:22.572Z,101467.59
2022-10-05T16:29:05.146Z,101483.91
2022-10-05T16:31:46.997Z,101489.56
2022-10-05T16:35:00.672Z,101499.84
2022-10-05T16:37:45.230Z,101489.34
2022-10-05T16:40:28.301Z,101494.69
2022-10-05T16:43:02.584Z,101476.50
2022-10-05T16:45:53.192Z,101469.81
2022-10-05T16:48:26.533Z,101487.97
2022-10-05T16:51:02.108Z,101491.78
2022-10-05T16:53:43.945Z,101505.25
2022-10-05T16:56:16.804Z,101496.44
2022-10-05T16:58:45.831Z,101502.78
2022-10-05T17:01:39.657Z,101501.59
2022-10-05T17:04:19.697Z,101492.78
2022-10-05T17:07:12.255Z,101507.25
2022-10-05T17:09:45.592Z,101505.59
2022-10-05T17:12:42.766Z,101503.09
2022-10-05T17:15:29.170Z,101503.09
2022-10-05T17:18:01.352Z,101522.72
2022-10-05T17:20:42.954Z,101513.06
2022-10-05T17:23:31.105Z,101504.56
2022-10-05T17:26:27.999Z,101504.69
2022-10-05T17:29:13.781Z,101502.03
2022-10-05T17:32:00.684Z,101518.56
2022-10-05T17:34:30.583Z,101510.72
2022-10-05T17:37:14.765Z,101515.06
2022-10-05T17:39:53.451Z,101518.72
2022-10-05T17:42:29.074Z,101531.34
2022-10-05T17:45:35.882Z,101520.38
2022-10-05T17:48:12.180Z,101526.72
2022-10-05T17:51:06.508Z,101530.06
2022-10-05T17:54:03.437Z,101548.53
2022-10-05T17:56:31.962Z,101532.06
2022-10-05T17:59:06.752Z,101539.03
2022-10-05T18:01:34.949Z,101540.72
2022-10-05T18:04:13.379Z,101546.56
2022-10-05T18:06:51.770Z,101549.06
2022-10-05T18:09:30.858Z,101551.06
2022-10-05T18:12:16.070Z,101529.75
2022-10-05T18:14:57.088Z,101540.75
2022-10-05T18:17:50.588Z,101544.25
2022-10-05T18:20:29.451Z,101540.44
2022-10-05T18:23:09.306Z,101557.09
2022-10-05T18:25:51.790Z,101546.78
2022-10-05T18:28:51.503Z,101548.72
2022-10-05T18:31:37.736Z,101551.09
2022-10-05T18:34:30.133Z,101558.09
2022-10-05T18:37:21.451Z,101560.44
2022-10-05T18:40:08.375Z,101551.75
2022-10-05T18:43:19.270Z,101559.28
2022-10-05T18:45:57.633Z,101563.47
2022-10-05T18:48:36.930Z,101569.31
2022-10-05T18:51:03.207Z,101580.22
2022-10-05T18:53:42.364Z,101585.81
2022-10-05T18:56:23.334Z,101579.16
2022-10-05T18:59:02.228Z,101580.47
2022-10-05T19:01:48.538Z,101587.88
2022-10-05T19:04:31.646Z,101596.72
2022-10-05T19:07:23.850Z,101593.38
2022-10-05T19:10:02.508Z,101604.53
2022-10-05T19:12:44.586Z,101598.91
2022-10-05T19:15:27.863Z,101613.75
2022-10-05T19:18:15.181Z,101622.56
2022-10-05T19:20:47.345Z,101614.94
2022-10-05T19:23:26.700Z,101615.28
2022-10-05T19:26:12.007Z,101621.59
2022-10-05T19:29:10.362Z,101628.28
2022-10-05T19:32:17.401Z,101636.31
2022-10-05T19:34:56.655Z,101646.00
2022-10-05T19:37:37.329Z,101642.34
2022-10-05T19:40:16.331Z,101656.66
2022-10-05T19:43:14.550Z,101647.13
2022-10-05T19:45:54.523Z,101677.00
2022-10-05T19:48:40.351Z,101708.31
2022-10-05T19:51:15.803Z,101756.19
2022-10-05T19:53:47.116Z,101750.22
2022-10-05T19:56:22.024Z,101762.00
2022-10-05T19:58:49.841Z,101767.84
2022-10-05T20:01:25.476Z,101767.47
2022-10-05T20:03:53.599Z,101778.84
2022-10-05T20:06:21.807Z,101772.34
2022-10-05T20:08:50.761Z,101787.59
2022-10-05T20:11:18.518Z,101788.13
2022-10-05T20:14:09.318Z,101793.94
2022-10-05T20:16:54.945Z,101798.94
2022-10-05T20:19:52.059Z,101811.34
2022-10-05T20:22:34.450Z,101816.28
2022-10-05T20:25:06.138Z,101827.44
2022-10-05T20:27:54.842Z,101843.34
2022-10-05T20:30:27.430Z,101836.63
2022-10-05T20:32:59.502Z,101846.25
2022-10-05T20:35:29.613Z,101853.94
2022-10-05T20:37:59.238Z,101857.69
2022-10-05T20:40:28.854Z,101849.88
2022-10-05T20:42:56.197Z,101855.88
2022-10-05T20:45:22.534Z,101870.16
2022-10-05T20:47:50.712Z,101864.03
2022-10-05T20:50:17.612Z,101876.31
2022-10-05T20:52:43.997Z,101877.28
2022-10-05T20:55:11.952Z,101877.41
2022-10-05T20:57:41.795Z,101886.91
2022-10-05T21:00:10.319Z,101895.84
2022-10-05T21:02:37.152Z,101908.84
2022-10-05T21:05:04.536Z,101903.41
2022-10-05T21:07:33.987Z,101917.50
2022-10-05T21:10:01.163Z,101943.06
2022-10-05T21:12:27.699Z,101950.66
2022-10-05T21:14:54.072Z,101955.13
2022-10-05T21:17:20.395Z,101952.47
2022-10-05T21:19:47.261Z,101945.06
2022-10-05T21:22:13.658Z,101934.63
2022-10-05T21:24:40.958Z,101928.06
2022-10-05T21:27:08.121Z,101940.44
2022-10-05T21:29:35.640Z,101944.44
2022-10-05T21:32:02.033Z,101937.69
2022-10-05T21:34:28.781Z,101941.31
2022-10-05T21:36:55.151Z,101947.94
2022-10-05T21:39:21.882Z,101948.06
2022-10-05T21:41:49.749Z,101950.97
2022-10-05T21:44:16.563Z,101944.94
2022-10-05T21:46:42.931Z,101964.09
2022-10-05T21:49:09.785Z,101962.53
2022-10-05T21:51:37.128Z,101971.44
2022-10-05T21:54:11.138Z,101967.81
2022-10-05T21:56:43.877Z,101980.56
2022-10-05T21:59:13.059Z,101984.44
2022-10-05T22:01:39.425Z,101985.16
2022-10-05T22:04:06.822Z,101994.06
2022-10-05T22:06:34.384Z,101990.94
2022-10-05T22:09:00.851Z,102010.19
2022-10-05T22:11:28.848Z,102012.34
2022-10-05T22:14:01.972Z,102021.38
2022-10-05T22:16:31.576Z,102021.50
2022-10-05T22:18:58.858Z,102021.59
2022-10-05T22:21:25.309Z,102027.16
2022-10-05T22:23:51.629Z,102037.13
2022-10-05T22:26:21.177Z,102039.53
2022-10-05T22:28:48.374Z,102046.66
2022-10-05T22:31:15.642Z,102058.06
2022-10-05T22:33:41.980Z,102065.03
2022-10-05T22:36:09.650Z,102063.59
2022-10-05T22:38:36.526Z,102067.69
2022-10-05T22:41:03.010Z,102078.03
2022-10-05T22:43:29.414Z,102081.06
2022-10-05T22:45:56.121Z,102080.13
2022-10-05T22:48:22.573Z,102085.97
2022-10-05T22:50:49.282Z,102088.88
2022-10-05T22:53:15.932Z,102095.72
2022-10-05T22:55:42.248Z,102101.63
2022-10-05T22:58:08.555Z,102101.63
2022-10-05T23:00:56.926Z,102117.88
2022-10-05T23:03:21.255Z,102108.38
2022-10-05T23:05:47.595Z,102115.13
2022-10-05T23:08:13.943Z,102129.44
2022-10-05T23:10:40.252Z,102115.19
2022-10-05T23:13:07.270Z,102123.28
2022-10-05T23:15:34.223Z,102132.38
2022-10-05T23:18:00.668Z,102135.78
2022-10-05T23:20:27.010Z,102138.75
2022-10-05T23:22:53.720Z,102141.75
2022-10-05T23:25:22.048Z,102145.13
2022-10-05T23:27:48.426Z,102152.13
2022-10-05T23:30:14.979Z,102146.81
2022-10-05T23:32:43.102Z,102149.00
2022-10-05T23:35:11.729Z,102154.19
2022-10-05T23:37:43.659Z,102159.16
2022-10-05T23:40:12.682Z,102159.59
2022-10-05T23:42:42.703Z,102173.22
2022-10-05T23:45:10.936Z,102179.09
2022-10-05T23:47:38.256Z,102175.50
2022-10-05T23:50:06.927Z,102183.94
2022-10-05T23:52:34.080Z,102185.63
2022-10-05T23:55:00.438Z,102188.53
2022-10-05T23:57:26.737Z,102195.13
2022-10-05T23:59:53.067Z,102208.53
